Date,TemperatureHighF,TemperatureAvgF,TemperatureLowF,DewpointHighF,DewpointAvgF,DewpointLowF,HumidityHigh,HumidityAvg,HumidityLow,PressureMaxIn,PressureMinIn,WindSpeedMaxMPH,WindSpeedAvgMPH,GustSpeedMaxMPH,PrecipitationSumIn
2013-9-1,83.3,72.0,64.9,74.3,68.2,63.5,97,88,68,29.84,29.75,8,0,11,0.26
2013-9-2,81.0,70.5,62.2,75.0,65.7,55.3,97,86,67,29.80,29.70,19,3,32,0.04
2013-9-3,69.1,62.2,58.1,60.0,56.5,53.7,88,82,71,29.96,29.79,11,1,18,0.00
2013-9-4,77.2,66.5,54.1,63.1,57.4,50.3,92,75,43,29.99,29.94,23,3,32,0.04
2013-9-5,66.0,57.4,44.2,61.0,48.7,41.1,95,75,46,30.23,29.98,18,2,18,0.00
2013-9-6,71.4,56.0,39.4,54.3,45.9,37.5,94,72,42,30.26,30.09,13,1,14,0.00
2013-9-7,65.8,59.9,51.4,63.7,56.4,47.9,94,89,76,30.09,29.86,24,2,24,0.29
2013-9-8,69.4,62.2,46.9,65.2,53.2,44.2,96,74,48,30.10,29.86,15,2,25,0.02
2013-9-9,74.1,59.4,42.4,64.0,52.6,40.8,94,80,57,30.11,29.93,15,2,23,0.00
2013-9-10,87.6,77.9,68.5,74.2,69.6,64.1,91,77,60,30.00,29.88,32,7,35,0.08
2013-9-11,88.2,79.3,71.2,73.5,70.9,67.6,91,76,57,30.02,29.89,18,4,24,0.27
2013-9-12,75.0,68.0,57.9,69.1,64.5,54.7,93,89,75,29.94,29.74,17,1,22,0.36
2013-9-13,58.8,53.2,49.3,55.9,49.1,44.3,91,86,76,30.04,29.78,18,3,18,0.02
2013-9-14,66.7,53.9,45.1,50.5,43.9,37.6,89,71,36,30.11,30.01,10,1,15,0.00
2013-9-15,68.5,57.2,45.1,56.3,50.0,42.0,90,78,58,30.12,30.03,14,2,19,0.09
2013-9-16,56.8,49.5,37.8,52.5,46.4,35.6,95,89,70,30.35,30.06,14,1,21,0.04
2013-9-17,67.3,49.3,32.9,48.8,41.5,31.3,95,77,46,30.44,30.25,8,1,12,0.02
2013-9-18,76.8,56.3,37.9,53.0,45.9,36.0,94,72,39,30.25,30.09,10,1,12,0.00
2013-9-19,79.9,60.9,45.0,61.9,53.3,43.1,95,78,51,30.10,29.99,10,2,16,0.00
2013-9-20,82.9,68.8,51.6,68.7,61.5,49.6,95,79,61,30.00,29.72,15,5,21,0.00
2013-9-21,73.4,62.1,52.3,66.1,59.7,49.7,96,92,74,29.75,29.62,17,3,33,2.42
2013-9-22,55.6,51.2,47.1,49.7,45.3,40.9,93,81,65,30.03,29.75,14,3,24,0.00
2013-9-23,62.2,50.7,40.5,47.7,42.2,37.6,93,74,49,30.14,30.03,14,1,14,0.00
2013-9-24,66.0,49.8,35.8,53.2,42.4,33.9,95,78,41,30.13,30.00,11,1,12,0.00
2013-9-25,72.5,52.2,36.5,56.3,44.2,34.6,94,77,44,30.00,29.94,10,0,13,0.00
2013-9-26,72.5,54.4,38.3,55.7,46.6,36.4,94,77,52,30.14,29.98,9,0,12,0.00
2013-9-27,72.5,57.1,44.1,58.2,50.9,42.4,95,81,60,30.24,30.13,8,0,10,0.00
2013-9-28,79.3,60.2,43.0,59.3,51.6,41.3,95,76,44,30.25,30.13,10,1,14,0.00
2013-9-29,77.7,61.4,46.6,58.9,52.8,43.9,92,75,50,30.13,29.97,14,2,19,0.00
2013-9-30,75.7,64.1,55.6,63.1,58.5,53.3,93,83,63,29.99,29.94,10,2,17,0.00